Problem v komunikaciji. Obiščite spletno stran Meteoalarma : www.meteoalarm.eu , kjer lahko neposredno preverite vremenska opozorila .

METAR v bližini

 

LIPQ - Ronchi Legionari, Italy
Oddaljenost od postaje: JZ 35km
Podatki zajeti: 24/02/2019 02:20
Jasno
Jasno
 Veter iz smeri V
Veter: V 11 km/h
Temperatura: 1°C
Občutek mraza zaradi vetra: -2°C
Temp. rosišča: -13°C
Vlažnost: 35%
Tlak: 1037 hPa
Oblačnost: Jasno
Vidljivost: 10 km
2019/02/24 01:20 LIPQ 240120Z AUTO 10006KT 9999 NCD 01/M13 Q1037
LIVT - Trieste, Italy
Oddaljenost od postaje: J 49km
Podatki zajeti: 23/02/2019 18:55
Ni posodobljen
Jasno
Jasno
 Veter iz smeri VSV
Veter: VSV 11 km/h
Temperatura: 4°C
Občutek mraza zaradi vetra: 1°C
Temp. rosišča: -22°C
Vlažnost: 13%
Tlak: 1034 hPa
Stanje: Jasno
Vidljivost: večja od 10 km
2019/02/23 17:55 LIVT 231755Z 06006KT CAVOK 04/M22 Q1034 RMK SKC QUK / QUL / VIS MAR 20 KM VIS MIN 9999
 
LIVO - Tarvisio, Italy
Oddaljenost od postaje: SSZ 49km
Podatki zajeti: 23/02/2019 18:55
Ni posodobljen
Jasno
Jasno
 Veter iz smeri SSV
Veter: SSV 6 km/h
Temperatura: 2°C
Temp. rosišča: -13°C
Vlažnost: 32%
Tlak: 1033 hPa
Stanje: Jasno
Vidljivost: večja od 10 km
2019/02/23 17:55 LIVO 231755Z 03003KT CAVOK 02/M13 Q1033 RMK SKC VIS MIN 9999
LIPI - Rivolto (it-Afb), Italy
Oddaljenost od postaje: ZJZ 57km
Podatki zajeti: 23/02/2019 01:55
Ni posodobljen
Megla, Delno oblačno
Megla, Delno oblačno
 Veter iz smeri spremenljiv
Veter: spremenljiv 0 km/h
Temperatura: 5°C
Temp. rosišča: 4°C
Vlažnost: 93%
Tlak: 1028 hPa
Stanje: Megla
Oblačnost: Delno oblačno
Vidljivost: 1 km
2019/02/23 00:55 LIPI 230055Z /////KT 0500 FG NSC 05/04 Q1028 RMK SKC VIS MIN 0500 WIND THR06 07004KT WIND THR24 03002KT RED
 
LJLJ - Ljubljana/Brnik, Slovenia
Oddaljenost od postaje: VSV 59km
Podatki zajeti: 24/02/2019 02:30
Jasno
Jasno
 Veter iz smeri SZ
Veter: SZ 6 km/h
Temperatura: -8°C
Temp. rosišča: -12°C
Vlažnost: 73%
Tlak: 1038 hPa
Stanje: Jasno
Vidljivost: večja od 10 km
2019/02/24 01:30 LJLJ 240130Z 31003KT CAVOK M08/M12 Q1038 NOSIG
LJPZ - Portoroz, Slovenia
Oddaljenost od postaje: J 68km
Podatki zajeti: 24/02/2019 02:30
Jasno
Jasno
 Veter iz smeri SSV
Veter: SSV 7 km/h
Temperatura: 2°C
Občutek mraza zaradi vetra: 0°C
Temp. rosišča: -17°C
Vlažnost: 23%
Tlak: 1037 hPa
Oblačnost: Jasno
Vidljivost: 10 km
2019/02/24 01:30 LJPZ 240130Z AUTO 03004KT 330V070 9999 NCD 02/M17 Q1037
 
LOWK - Klagenfurt(Civ/M, Austria
Oddaljenost od postaje: SV 78km
Podatki zajeti: 24/02/2019 02:20
Delno oblačno
Delno oblačno
 Veter iz smeri SSZ
Veter: SSZ 6 km/h
Temperatura: -5°C
Temp. rosišča: -10°C
Vlažnost: 68%
Tlak: 1038 hPa
Oblačnost: Delno oblačno
Vidljivost: 10 km
2019/02/24 01:20 LOWK 240120Z AUTO 34003KT 9999 NSC M05/M10 Q1038
LIYW - Aviano (usaf), Italy
Oddaljenost od postaje: Z 86km
Podatki zajeti: 20/10/2015 15:58
Ni posodobljen
Jasno
Jasno
 Veter iz smeri JJZ
Veter: JJZ 6 km/h
Temperatura: 17°C
Temp. rosišča: 3°C
Vlažnost: 39%
Tlak: 1016.3 hPa
Oblačnost: Jasno
Vidljivost: 10 km
2015/10/20 13:58 LIYW 201358Z AUTO 21003KT 9999 CLR 17/03 A3001 RMK AO2 SLP167 T01660029
 
LIPA - Aviano (it/Us-Af, Italy
Oddaljenost od postaje: Z 89km
Podatki zajeti: 23/02/2019 21:55
Ni posodobljen
Jasno
Jasno
 Veter iz smeri S
Veter: S 9 km/h
Temperatura: 2°C
Občutek mraza zaradi vetra: -1°C
Temp. rosišča: -1°C
Vlažnost: 81%
Tlak: 1036 hPa
Stanje: Jasno
Vidljivost: večja od 10 km
2019/02/23 20:55 LIPA 232055Z 01005KT CAVOK 02/M01 Q1036 RMK SKC VIS MIN 9999 WIND THR05 01004KT WIND THR23 02003KT A3061 BLU
LDRI - Rijeka/Omisalj, Croatia
Oddaljenost od postaje: JV 115km
Podatki zajeti: 24/02/2019 02:30
Jasno
Jasno
 Veter iz smeri VSV
Veter: VSV 22 km/h, Sunek vetra: 46 km/h
Temperatura: 1°C
Občutek mraza zaradi vetra: -4°C
Temp. rosišča: -13°C
Vlažnost: 35%
Tlak: 1037 hPa
Stanje: Jasno
Vidljivost: večja od 10 km
2019/02/24 01:30 LDRI 240130Z 06012G25KT 010V100 CAVOK 01/M13 Q1037
 
LIPZ - Venezia/Tessera, Italy
Oddaljenost od postaje: ZJZ 127km
Podatki zajeti: 24/02/2019 02:20
Jasno
Jasno
 Veter iz smeri S
Veter: S 9 km/h
Temperatura: 1°C
Občutek mraza zaradi vetra: -2°C
Temp. rosišča: -7°C
Vlažnost: 56%
Tlak: 1038 hPa
Stanje: Jasno
Vidljivost: večja od 10 km
2019/02/24 01:20 LIPZ 240120Z 36005KT CAVOK 01/M07 Q1038 NOSIG
LDPL - Pula, Croatia
Oddaljenost od postaje: J 133km
Podatki zajeti: 24/02/2019 02:30
Jasno
Jasno
 Veter iz smeri spremenljiv
Veter: spremenljiv 4 km/h
Temperatura: -2°C
Temp. rosišča: -11°C
Vlažnost: 51%
Tlak: 1037 hPa
Stanje: Jasno
Vidljivost: večja od 10 km
2019/02/24 01:30 LDPL 240130Z VRB02KT CAVOK M02/M11 Q1037
 
LIPS - Istrana (it-Afb), Italy
Oddaljenost od postaje: ZJZ 136km
Podatki zajeti: 24/02/2019 01:55
Jasno
Jasno
 Veter iz smeri SV
Veter: SV 7 km/h
Temperatura: 1°C
Občutek mraza zaradi vetra: -2°C
Temp. rosišča: -4°C
Vlažnost: 70%
Tlak: 1038 hPa
Stanje: Jasno
Vidljivost: večja od 10 km
2019/02/24 00:55 LIPS 240055Z 04004KT CAVOK 01/M04 Q1038 RMK SKC VIS MIN 9999 WIND THR26 02002KT WIND THR08 06003KT BLU
LIVD - Dobbiaco, Italy
Oddaljenost od postaje: ZSZ 137km
Podatki zajeti: 23/02/2019 18:55
Ni posodobljen

 
2019/02/23 17:55 LIVD 231755Z ///10KT CAVOK 01/M11 Q1031 RMK SKC VIS MIN 9999
 
LJCE - Cerklje, Slovenia
Oddaljenost od postaje: V 139km
Podatki zajeti: 24/02/2019 02:30
Jasno
Jasno
 Veter iz smeri calm
Veter: Tišina
Temperatura: -7°C
Temp. rosišča: -11°C
Vlažnost: 73%
Tlak: 1040 hPa
Oblačnost: Jasno
Vidljivost: 10 km
2019/02/24 01:30 LJCE 240130Z AUTO 00000KT 9999 NCD M07/M11 Q1040
LOXZ - Zeltweg (mil), Austria
Oddaljenost od postaje: SSV 147km
Podatki zajeti: 24/02/2019 00:50
Ni posodobljen
Jasno
Jasno
 Veter iz smeri spremenljiv
Veter: spremenljiv 2 km/h
Temperatura: -5°C
Temp. rosišča: -9°C
Vlažnost: 74%
Tlak: 1037 hPa
Oblačnost: Jasno
2019/02/23 23:50 LOXZ 232350Z VRB01KT 15KM SKC M05/M09 Q1037